M I D A S
Marine Information and Data Acquisition System
Tripno 2164 of the Zeeleeuw from 2011-08-16 06:28:40 to 2011-08-16 14:17:33
Back to CruiseResearch ActivitiesStationsMapUnderway DataData graphs

EquipmentUnitsComment
TimeDGPSUTC
LatitudeDGPSDM.mWGS84
LongitudeDGPSDM.mWGS84
HeadingGyrodeg 
SOGDGPSknotsSpeed over ground
COGDGPSdegCourse over ground
DepthEcho soundermeters200 kHz
Missing or incorrect values are displayed as -999
Navigation data collected by the RV Zeeleeuw from 2011-08-16 06:30:26 to 2011-08-16 14:30:31
Time Latitude Longitude Heading SOG COG Depth
2011-08-16 06:31:31 51°13.648 2°55.983 114.4 1.8 303 -999
2011-08-16 06:32:31 51°13.661 2°55.935 103.7 2.5 287 -999
2011-08-16 06:33:31 51°13.672 2°55.851 101.1 3.7 282 -999
2011-08-16 06:34:31 51°13.68 2°55.761 91 2.4 275 10
2011-08-16 06:35:30 51°13.701 2°55.775 26.3 2.4 21 11.8
2011-08-16 06:36:31 51°13.716 2°55.781 358.3 0.5 168 -999
2011-08-16 06:37:31 51°13.727 2°55.768 328.4 3 321 11.4
2011-08-16 06:38:31 51°13.791 2°55.674 320.7 6 321 10.7
2011-08-16 06:39:31 51°13.878 2°55.596 336.1 6.1 336 10.8
2011-08-16 06:40:31 51°13.976 2°55.527 337.4 6.7 336 10.8
2011-08-16 06:41:31 51°14.082 2°55.452 337.7 7.2 336 10.5
2011-08-16 06:42:30 51°14.19 2°55.37 335.5 7.3 333 10.5
2011-08-16 06:43:30 51°14.296 2°55.276 331.2 7.3 330 10.6
2011-08-16 06:44:29 51°14.399 2°55.177 330.2 7.3 328 10.4
2011-08-16 06:45:28 51°14.499 2°55.071 325.5 7.5 324 10.5
2011-08-16 06:46:27 51°14.61 2°54.921 326 9.8 319 11.1
2011-08-16 06:47:27 51°14.744 2°54.748 329.2 11.2 322 10.9
2011-08-16 06:48:27 51°14.906 2°54.55 330.5 12.8 324 11.1
2011-08-16 06:49:27 51°15.074 2°54.343 325.7 12.8 321 10.7
2011-08-16 06:50:27 51°15.239 2°54.128 325.6 12.8 322 11.1
2011-08-16 06:51:27 51°15.411 2°53.927 329.9 12.8 325 11.2
2011-08-16 06:52:27 51°15.584 2°53.726 329.9 12.9 324 11.2
2011-08-16 06:53:27 51°15.768 2°53.553 340.5 12.8 334 11.4
2011-08-16 06:54:27 51°15.959 2°53.408 339 12.8 332 10.8
2011-08-16 06:55:27 51°16.143 2°53.236 336.1 12.8 330 11
2011-08-16 06:56:27 51°16.33 2°53.079 340.2 12.7 334 11.3
2011-08-16 06:57:27 51°16.523 2°52.943 342.3 12.7 335 11
2011-08-16 06:58:27 51°16.712 2°52.787 336.3 12.7 333 9.8
2011-08-16 06:59:27 51°16.896 2°52.632 337.4 12.5 332 8.9
2011-08-16 07:00:27 51°17.09 2°52.518 353.5 12.3 351 8.8
2011-08-16 07:01:27 51°17.293 2°52.523 7.7 12.2 3 9.3
2011-08-16 07:02:27 51°17.496 2°52.534 8.2 12.2 7 9.4
2011-08-16 07:03:27 51°17.657 2°52.698 54.2 11.6 56 9.4
2011-08-16 07:04:27 51°17.76 2°52.96 54.5 11.7 51 9.3
2011-08-16 07:05:28 51°17.896 2°53.19 49.6 11.7 49 9.4
2011-08-16 07:06:27 51°18.028 2°53.414 45.2 11.7 43 9.4
2011-08-16 07:07:27 51°18.154 2°53.647 61.4 11.6 61 9.6
2011-08-16 07:08:27 51°18.249 2°53.917 57.3 11.7 54 9.5
2011-08-16 07:09:27 51°18.37 2°54.16 56.1 11.7 56 9.5
2011-08-16 07:10:27 51°18.482 2°54.414 55.6 11.6 55 9.6
2011-08-16 07:11:27 51°18.587 2°54.675 62.2 11.7 61 9.8
2011-08-16 07:12:27 51°18.681 2°54.946 58.1 11.7 58 9.8
2011-08-16 07:13:27 51°18.783 2°55.208 63.3 11.6 64 9.9
2011-08-16 07:14:27 51°18.848 2°55.5 73 11.6 72 9.7
2011-08-16 07:15:27 51°18.927 2°55.781 65.1 11.6 66 9.6
2011-08-16 07:16:27 51°19.003 2°56.064 71.4 11.6 71 9.5
2011-08-16 07:17:27 51°19.066 2°56.355 66 11.6 64 9.4
2011-08-16 07:18:27 51°19.156 2°56.63 66.4 11.6 67 9.3
2011-08-16 07:19:27 51°19.22 2°56.921 70.5 11.6 70 9.3
2011-08-16 07:20:27 51°19.288 2°57.208 68.5 11.5 66 9.2
2011-08-16 07:21:27 51°19.379 2°57.477 61.8 11.5 60 9.1
2011-08-16 07:22:27 51°19.469 2°57.746 62.8 11.4 62 9
2011-08-16 07:23:27 51°19.544 2°58.023 71.2 11.4 71 8.9
2011-08-16 07:24:27 51°19.609 2°58.307 68.5 11.4 67 8.8
2011-08-16 07:25:27 51°19.686 2°58.586 65.6 11.5 63 8.7
2011-08-16 07:26:27 51°19.766 2°58.86 69.1 11.3 69 8.6
2011-08-16 07:27:27 51°19.854 2°59.125 60.9 11.3 59 8.6
2011-08-16 07:28:27 51°19.943 2°59.387 65.4 11.1 63 8.7
2011-08-16 07:29:27 51°20.019 2°59.655 68.2 11 68 8.6
2011-08-16 07:30:27 51°20.085 2°59.926 68.9 11 68 8.5
2011-08-16 07:31:27 51°20.147 3°0.198 69.9 10.8 68 8.5
2011-08-16 07:32:27 51°20.237 3°0.447 62.5 10.7 60 8.5
2011-08-16 07:33:27 51°20.31 3°0.705 74.1 10.7 72 8.5
2011-08-16 07:34:27 51°20.382 3°0.964 65.4 10.6 60 8.6
2011-08-16 07:35:27 51°20.463 3°1.214 66.7 10.6 63 8.5
2011-08-16 07:36:27 51°20.531 3°1.473 74.1 10.6 72 8.3
2011-08-16 07:37:27 51°20.589 3°1.741 72.3 10.6 68 8.3
2011-08-16 07:38:27 51°20.669 3°1.993 67.3 10.7 65 8.4
2011-08-16 07:39:28 51°20.746 3°2.255 68.3 10.7 65 8.8
2011-08-16 07:40:27 51°20.805 3°2.518 74.3 10.8 74 9.1
2011-08-16 07:41:27 51°20.871 3°2.782 67.3 10.6 63 9.1
2011-08-16 07:42:27 51°20.949 3°3.038 67.4 10.7 63 9.1
2011-08-16 07:43:27 51°21.022 3°3.294 71.8 10.5 72 9.3
2011-08-16 07:44:27 51°21.082 3°3.556 68.1 10.6 65 9.4
2011-08-16 07:45:27 51°21.146 3°3.818 74.1 10.6 73 9.4
2011-08-16 07:46:27 51°21.203 3°4.085 72 10.7 70 9.3
2011-08-16 07:47:27 51°21.279 3°4.342 67.2 10.6 64 9.4
2011-08-16 07:48:27 51°21.345 3°4.605 69.4 10.8 69 9.4
2011-08-16 07:49:27 51°21.414 3°4.87 71.2 10.8 72 9.5
2011-08-16 07:50:27 51°21.464 3°5.149 74 11 74 9.5
2011-08-16 07:51:27 51°21.513 3°5.43 73.8 11 74 9.4
2011-08-16 07:52:27 51°21.579 3°5.7 67.6 11 69 9.5
2011-08-16 07:53:27 51°21.632 3°5.982 74.8 11 75 9.5
2011-08-16 07:54:27 51°21.695 3°6.259 69.2 11.2 68 9.8
2011-08-16 07:55:27 51°21.746 3°6.545 77.8 11.3 80 9.9
2011-08-16 07:56:27 51°21.783 3°6.837 76.2 11.2 77 10.3
2011-08-16 07:57:27 51°21.815 3°7.128 79.8 11.2 80 10.4
2011-08-16 07:58:27 51°21.867 3°7.411 72.3 11 72 10.4
2011-08-16 07:59:27 51°21.935 3°7.682 69.7 10.9 68 10.4
2011-08-16 08:00:27 51°21.995 3°7.955 75.5 10.9 76 10.7
2011-08-16 08:01:27 51°22.041 3°8.235 75.3 10.8 74 10.8
2011-08-16 08:02:27 51°22.102 3°8.506 71.8 11 70 11.1
2011-08-16 08:03:27 51°22.16 3°8.783 70.6 10.9 70 11.3
2011-08-16 08:04:27 51°22.221 3°9.056 77.9 11 77 11.7
2011-08-16 08:05:27 51°22.254 3°9.341 81.1 10.9 80 11.7
2011-08-16 08:06:27 51°22.273 3°9.63 84.7 11 84 12.3
2011-08-16 08:07:27 51°22.307 3°9.918 80.3 11.1 78 12.7
2011-08-16 08:08:27 51°22.33 3°10.209 86.4 11 86 13.3
2011-08-16 08:09:27 51°22.354 3°10.5 81.3 11.2 79 16.7
2011-08-16 08:10:27 51°22.384 3°10.791 88.4 11 87 15.3
2011-08-16 08:11:28 51°22.376 3°11.088 92.8 10.9 91 14.6
2011-08-16 08:12:27 51°22.377 3°11.375 87.2 11 85 14.7
2011-08-16 08:13:28 51°22.383 3°11.674 91.4 11.1 91 14.6
2011-08-16 08:14:27 51°22.385 3°11.945 88.7 9.3 86 14.8
2011-08-16 08:15:27 51°22.41 3°12.186 81.4 9.1 77 14.5
2011-08-16 08:16:27 51°22.442 3°12.423 82.9 9.2 80 13.4
2011-08-16 08:17:27 51°22.466 3°12.649 83.6 7.7 80 12.6
2011-08-16 08:18:27 51°22.493 3°12.839 80.3 7.2 79 12.1
2011-08-16 08:19:27 51°22.516 3°13.024 81.6 7.1 79 11.6
2011-08-16 08:20:27 51°22.543 3°13.189 73.9 4.7 65 11.1
2011-08-16 08:21:27 51°22.58 3°13.249 47.4 3.1 22 11.1
2011-08-16 08:22:28 51°22.622 3°13.24 9.2 1.7 319 11.2
2011-08-16 08:23:27 51°22.636 3°13.207 346 1.5 301 11.1
2011-08-16 08:24:28 51°22.647 3°13.172 337.4 1.4 292 11.1
2011-08-16 08:25:27 51°22.654 3°13.138 331.1 1.3 292 11.2
2011-08-16 08:26:27 51°22.662 3°13.107 327.2 1.2 289 11.2
2011-08-16 08:27:27 51°22.668 3°13.079 331.1 1.1 291 11.2
2011-08-16 08:28:28 51°22.674 3°13.052 336.4 1.1 294 11.4
2011-08-16 08:29:28 51°22.727 3°12.97 323.1 8.7 313 11.2
2011-08-16 08:30:27 51°22.86 3°12.804 347 11.4 338 10.8
2011-08-16 08:31:28 51°23.048 3°12.66 342 12.7 333 10.7
2011-08-16 08:32:27 51°23.232 3°12.509 342.1 12.6 333 10.6
2011-08-16 08:33:28 51°23.425 3°12.365 339.6 12.6 333 11
2011-08-16 08:34:27 51°23.6 3°12.186 329.4 12.8 321 10.5
2011-08-16 08:35:27 51°23.763 3°11.965 327.5 12.8 320 11.3
2011-08-16 08:36:27 51°23.924 3°11.733 325.1 13.1 318 13.1
2011-08-16 08:37:27 51°24.087 3°11.499 325.2 13.3 315 15.7
2011-08-16 08:38:28 51°24.208 3°11.194 297.6 13.7 290 17.8
2011-08-16 08:39:27 51°24.26 3°10.841 286.7 14 283 18.1
2011-08-16 08:40:28 51°24.314 3°10.476 286.2 13.7 283 17.5
2011-08-16 08:41:27 51°24.365 3°10.127 287.9 13.7 284 14.6
2011-08-16 08:42:28 51°24.433 3°9.777 290.7 13.5 286 11.8
2011-08-16 08:43:27 51°24.495 3°9.436 295.7 13.5 291 10.5
2011-08-16 08:44:27 51°24.564 3°9.099 289.9 13.3 285 9.7
2011-08-16 08:45:28 51°24.632 3°8.774 296.6 12.4 292 9.2
2011-08-16 08:46:27 51°24.72 3°8.479 303 12.5 298 8.9
2011-08-16 08:47:28 51°24.835 3°8.2 312.8 12.3 308 8.5
2011-08-16 08:48:27 51°24.981 3°7.999 338.7 11.2 336 7
2011-08-16 08:49:27 51°25.16 3°7.951 1.6 11.1 356 7.3
2011-08-16 08:50:27 51°25.345 3°7.956 9.9 11.2 7 7.6
2011-08-16 08:51:27 51°25.527 3°8.01 20.3 11.1 18 8
2011-08-16 08:52:27 51°25.699 3°8.11 22.2 10.9 21 8.2
2011-08-16 08:53:27 51°25.871 3°8.206 23.3 11 20 8.8
2011-08-16 08:54:28 51°26.042 3°8.258 9.8 9.1 7 8.8
2011-08-16 08:55:28 51°26.18 3°8.301 16.4 8.2 13 9
2011-08-16 08:56:27 51°26.304 3°8.337 8 6.2 2 9.3
2011-08-16 08:57:27 51°26.379 3°8.331 4.3 3.5 359 9.6
2011-08-16 08:58:27 51°26.423 3°8.352 22.6 2.2 22 9.8
2011-08-16 08:59:27 51°26.442 3°8.361 25.2 0.4 43 9.6
2011-08-16 09:00:28 51°26.445 3°8.37 27.7 0.2 76 9.7
2011-08-16 09:01:27 51°26.444 3°8.372 18.8 0.2 154 9.7
2011-08-16 09:02:28 51°26.441 3°8.37 10.7 0.3 209 9.7
2011-08-16 09:03:27 51°26.436 3°8.364 0.4 0.5 220 9.9
2011-08-16 09:04:27 51°26.428 3°8.356 352.1 0.6 208 9.9
2011-08-16 09:05:28 51°26.425 3°8.342 348.1 2 327 9.7
2011-08-16 09:06:27 51°26.493 3°8.195 313.6 10.4 306 9.1
2011-08-16 09:07:28 51°26.606 3°7.942 311.6 12 303 9.3
2011-08-16 09:08:27 51°26.708 3°7.666 308.4 12.3 301 10.3
2011-08-16 09:09:27 51°26.815 3°7.387 309.7 12.3 303 10.7
2011-08-16 09:10:27 51°26.934 3°7.124 309.7 12.3 301 11.3
2011-08-16 09:11:27 51°27.029 3°6.83 303.2 12.5 296 11.8
2011-08-16 09:12:28 51°27.123 3°6.528 304.5 12.5 298 12.3
2011-08-16 09:13:27 51°27.224 3°6.244 309.5 12.4 303 12.9
2011-08-16 09:14:28 51°27.332 3°5.953 306.4 12.6 299 13.2
2011-08-16 09:15:27 51°27.43 3°5.661 305.5 12.7 298 13.5
2011-08-16 09:16:27 51°27.534 3°5.368 311.2 12.5 303 14.5
2011-08-16 09:17:27 51°27.643 3°5.082 310.6 12.6 303 13.1
2011-08-16 09:18:28 51°27.755 3°4.79 310.8 12.6 302 12.5
2011-08-16 09:19:27 51°27.857 3°4.498 310 12.8 302 15.1
2011-08-16 09:20:27 51°27.979 3°4.221 313.5 12.8 304 17.1
2011-08-16 09:21:28 51°28.098 3°3.932 312.2 12.5 303 18.7
2011-08-16 09:22:27 51°28.194 3°3.711 314.9 8.4 302 20.2
2011-08-16 09:23:28 51°28.248 3°3.549 312 5.7 297 21.3
2011-08-16 09:24:27 51°28.271 3°3.461 307.1 1.9 267 21.8
2011-08-16 09:25:27 51°28.263 3°3.425 301.8 1.3 247 21.6
2011-08-16 09:26:27 51°28.254 3°3.395 300.7 1.2 242 22.3
2011-08-16 09:27:27 51°28.245 3°3.37 312.9 1 236 22
2011-08-16 09:28:27 51°28.234 3°3.348 324.3 1.1 231 21.8
2011-08-16 09:29:27 51°28.223 3°3.325 333.2 1.1 231 21.7
2011-08-16 09:30:27 51°28.215 3°3.3 332.1 1.9 288 21.9
2011-08-16 09:31:27 51°28.213 3°3.192 259.3 6.5 251 22
2011-08-16 09:32:27 51°28.155 3°2.909 257.1 13.5 253 22.5
2011-08-16 09:33:27 51°28.094 3°2.549 260.9 14.2 258 22.7
2011-08-16 09:34:27 51°28.038 3°2.183 257 14.2 253 22.9
2011-08-16 09:35:27 51°27.965 3°1.821 259.4 14.2 257 23.2
2011-08-16 09:36:27 51°27.913 3°1.45 259.2 14.4 254 23
2011-08-16 09:37:27 51°27.84 3°1.083 255.8 14.5 252 23.8
2011-08-16 09:38:27 51°27.784 3°0.71 263 14.4 257 22.6
2011-08-16 09:39:27 51°27.729 3°0.337 260.7 14.4 255 20.8
2011-08-16 09:40:27 51°27.659 2°59.97 257.7 14.4 253 18.9
2011-08-16 09:41:27 51°27.596 2°59.602 261.4 14.2 256 17.9
2011-08-16 09:42:27 51°27.533 2°59.237 256.4 14.2 252 18.2
2011-08-16 09:43:27 51°27.459 2°58.876 255.3 14.3 252 17.2
2011-08-16 09:44:27 51°27.401 2°58.51 259.1 14.2 254 16.7
2011-08-16 09:45:27 51°27.334 2°58.148 257.6 14.1 253 17.8
2011-08-16 09:46:27 51°27.267 2°57.787 259.5 14.2 255 20.8
2011-08-16 09:47:27 51°27.214 2°57.419 261.2 14.2 256 24
2011-08-16 09:48:27 51°27.146 2°57.055 257.3 14.3 253 23.7
2011-08-16 09:49:27 51°27.086 2°56.688 258.1 14.4 254 20.3
2011-08-16 09:50:27 51°27.01 2°56.323 253.3 14.4 248 26
2011-08-16 09:51:27 51°26.926 2°55.96 256.3 14.5 251 27.9
2011-08-16 09:52:27 51°26.845 2°55.601 254.5 14.2 250 26.2
2011-08-16 09:53:27 51°26.777 2°55.237 258.6 14.3 253 26.3
2011-08-16 09:54:27 51°26.699 2°54.875 255.7 14.4 252 26.9
2011-08-16 09:55:27 51°26.636 2°54.504 259.9 14.5 255 22.7
2011-08-16 09:56:27 51°26.566 2°54.135 255.1 14.4 251 31.4
2011-08-16 09:57:27 51°26.493 2°53.775 256.1 14.1 253 31.8
2011-08-16 09:58:27 51°26.439 2°53.409 260.8 14.2 256 31.2
2011-08-16 09:59:27 51°26.376 2°53.044 257.2 14.3 254 28.6
2011-08-16 10:00:27 51°26.315 2°52.675 262.1 14.4 259 26.4
2011-08-16 10:01:27 51°26.263 2°52.302 261.3 14.3 257 27.1
2011-08-16 10:02:27 51°26.199 2°51.934 259.4 14.4 256 25.1
2011-08-16 10:03:27 51°26.142 2°51.564 258.2 14.2 254 29.5
2011-08-16 10:04:27 51°26.084 2°51.197 263.4 14.3 260 23.4
2011-08-16 10:05:27 51°26.037 2°50.824 259.2 14.3 256 23.5
2011-08-16 10:06:27 51°25.99 2°50.452 262.6 14.3 259 23.2
2011-08-16 10:07:27 51°25.95 2°50.077 267.2 14.3 263 23
2011-08-16 10:08:27 51°25.92 2°49.701 266.3 14.2 262 23.2
2011-08-16 10:09:27 51°25.881 2°49.371 262.1 10.1 259 23.2
2011-08-16 10:10:27 51°25.876 2°49.143 285 7.8 278 24
2011-08-16 10:11:27 51°25.912 2°48.96 306.4 7 295 23.7
2011-08-16 10:12:27 51°25.962 2°48.796 306.1 6.6 296 23.8
2011-08-16 10:13:27 51°25.998 2°48.653 302.9 5.4 290 23.6
2011-08-16 10:14:27 51°26.017 2°48.54 293.8 3 273 23.3
2011-08-16 10:15:27 51°26.012 2°48.496 280.5 1.2 250 23.5
2011-08-16 10:16:27 51°26.005 2°48.471 282.6 0.9 247 23.5
2011-08-16 10:17:27 51°25.998 2°48.451 298.2 0.8 238 23.7
2011-08-16 10:18:27 51°25.99 2°48.434 311.5 0.8 231 23.7
2011-08-16 10:19:29 51°25.982 2°48.417 318.9 0.8 232 -999
2011-08-16 10:20:30 51°25.973 2°48.401 323.1 0.8 226 23.6
2011-08-16 10:21:28 51°25.965 2°48.388 328.2 0.7 221 23.5
2011-08-16 10:22:28 51°25.956 2°48.375 329.9 0.7 222 23.3
2011-08-16 10:23:27 51°25.947 2°48.36 329 0.7 240 23.7
2011-08-16 10:24:27 51°25.954 2°48.311 298.3 3.4 280 23.3
2011-08-16 10:25:27 51°25.931 2°48.159 244.9 8.4 241 23.7
2011-08-16 10:26:27 51°25.843 2°47.902 241.4 13.1 240 23.1
2011-08-16 10:27:27 51°25.721 2°47.596 238.3 13.7 237 25.6
2011-08-16 10:28:27 51°25.61 2°47.278 243.1 13.6 242 24.9
2011-08-16 10:29:27 51°25.496 2°46.966 240.3 13.6 240 25.2
2011-08-16 10:30:28 51°25.384 2°46.642 243.2 13.7 242 25.6
2011-08-16 10:31:28 51°25.271 2°46.328 239.2 13.7 238 24.9
2011-08-16 10:32:28 51°25.151 2°46.018 238.9 13.7 238 23.6
2011-08-16 10:33:28 51°25.037 2°45.702 242.4 13.7 242 25.5
2011-08-16 10:34:28 51°24.926 2°45.384 239.6 13.7 239 26.6
2011-08-16 10:35:28 51°24.808 2°45.067 240.3 13.8 240 26.2
2011-08-16 10:36:28 51°24.689 2°44.752 239.4 13.9 239 27.2
2011-08-16 10:37:28 51°24.581 2°44.428 244.1 13.8 242 26.9
2011-08-16 10:38:28 51°24.468 2°44.107 238.8 14 238 23
2011-08-16 10:39:28 51°24.358 2°43.781 243.8 14 242 24.2
2011-08-16 10:40:28 51°24.239 2°43.464 239.7 13.8 238 26.3
2011-08-16 10:41:28 51°24.128 2°43.14 243.5 13.9 244 23.1
2011-08-16 10:42:28 51°24.021 2°42.816 241.8 13.7 241 26.6
2011-08-16 10:43:28 51°23.901 2°42.505 238.9 13.8 239 25.8
2011-08-16 10:44:28 51°23.791 2°42.185 242.8 13.7 242 26.2
2011-08-16 10:45:28 51°23.675 2°41.874 239.5 13.6 238 27.5
2011-08-16 10:46:28 51°23.57 2°41.553 245.7 13.6 245 26.7
2011-08-16 10:47:28 51°23.471 2°41.226 245.4 13.7 245 29.9
2011-08-16 10:48:28 51°23.366 2°40.908 241.9 13.5 240 29.5
2011-08-16 10:49:28 51°23.26 2°40.591 245.8 13.5 245 30
2011-08-16 10:50:28 51°23.166 2°40.266 244.2 13.5 242 30.2
2011-08-16 10:51:28 51°23.071 2°39.941 253 13.5 253 30.4
2011-08-16 10:52:28 51°23.002 2°39.599 251.7 13.6 249 30.1
2011-08-16 10:53:28 51°22.915 2°39.264 250.1 13.6 248 30
2011-08-16 10:54:28 51°22.831 2°38.926 251.7 13.6 249 30.8
2011-08-16 10:55:28 51°22.754 2°38.586 254.6 13.6 252 30.6
2011-08-16 10:56:28 51°22.692 2°38.239 256.8 13.6 254 30.8
2011-08-16 10:57:28 51°22.626 2°37.893 254.1 13.6 251 30.3
2011-08-16 10:58:28 51°22.553 2°37.553 255.5 13.5 253 30.4
2011-08-16 10:59:28 51°22.487 2°37.209 255.1 13.6 253 29.9
2011-08-16 11:00:28 51°22.415 2°36.869 251.7 13.5 249 30.4
2011-08-16 11:01:28 51°22.311 2°36.551 242.5 13.5 241 29.9
2011-08-16 11:02:28 51°22.207 2°36.234 245.4 13.5 245 30.6
2011-08-16 11:03:28 51°22.107 2°35.916 241.3 13.4 239 30.4
2011-08-16 11:04:28 51°21.991 2°35.611 241.1 13.4 240 30.3
2011-08-16 11:05:28 51°21.878 2°35.308 236.3 13.3 233 30.5
2011-08-16 11:06:28 51°21.736 2°35.036 228.1 13.4 228 30.3
2011-08-16 11:07:28 51°21.591 2°34.765 231.5 13.4 231 31.2
2011-08-16 11:08:28 51°21.465 2°34.476 236.1 13.2 235 33.1
2011-08-16 11:09:28 51°21.341 2°34.182 237.6 13.3 236 31.3
2011-08-16 11:10:28 51°21.21 2°33.898 232.9 13.3 231 32.7
2011-08-16 11:11:28 51°21.073 2°33.619 233.9 13.3 233 32.8
2011-08-16 11:12:28 51°20.953 2°33.323 240.7 13.2 238 31.5
2011-08-16 11:13:28 51°20.818 2°33.041 231.5 13.4 230 31.2
2011-08-16 11:14:28 51°20.679 2°32.762 235.2 13.4 234 30.8
2011-08-16 11:15:28 51°20.554 2°32.469 237 13.3 234 30.7
2011-08-16 11:16:28 51°20.429 2°32.176 238.7 13.4 237 31
2011-08-16 11:17:28 51°20.3 2°31.886 233.9 13.4 232 30.5
2011-08-16 11:18:28 51°20.165 2°31.604 234.3 13.4 232 29.5
2011-08-16 11:19:28 51°20.062 2°31.296 253.4 13.1 252 24.4
2011-08-16 11:20:28 51°20.002 2°30.965 255.6 12.9 253 21.4
2011-08-16 11:21:28 51°19.935 2°30.639 255.6 12.9 253 17.3
2011-08-16 11:22:28 51°19.861 2°30.329 251.2 10.7 249 15.6
2011-08-16 11:23:28 51°19.843 2°30.157 286.7 4.3 284 13.5
2011-08-16 11:24:28 51°19.891 2°30.085 329 4.4 323 13.6
2011-08-16 11:25:28 51°19.949 2°30.011 326.6 3.8 327 14.2
2011-08-16 11:26:28 51°19.992 2°29.986 348 1.8 351 14.4
2011-08-16 11:27:28 51°20.004 2°29.994 11 0.8 35 15.5
2011-08-16 11:28:28 51°20.015 2°30.007 2.3 0.8 38 15.4
2011-08-16 11:29:28 51°20.023 2°30.019 351.4 0.5 45 14.7
2011-08-16 11:30:28 51°20.027 2°30.03 344.1 0.5 60 14.1
2011-08-16 11:31:28 51°20.031 2°30.041 338.1 0.5 70 12.3
2011-08-16 11:32:28 51°20.032 2°30.055 334.9 0.5 78 14.5
2011-08-16 11:33:28 51°20.034 2°30.069 330.6 0.6 86 14.5
2011-08-16 11:34:28 51°20.048 2°30.074 342 2.8 357 15.3
2011-08-16 11:35:28 51°20.092 2°30.152 77.3 5.1 88 13.9
2011-08-16 11:36:28 51°20.036 2°30.349 115.1 11.4 116 13.5
2011-08-16 11:37:28 51°19.935 2°30.645 119.8 13.2 122 17.3
2011-08-16 11:38:28 51°19.804 2°30.919 126.1 12.9 128 23.1
2011-08-16 11:39:28 51°19.676 2°31.195 127.3 13 130 30
2011-08-16 11:40:28 51°19.535 2°31.454 125.7 12.8 128 31.4
2011-08-16 11:41:28 51°19.393 2°31.71 129.5 12.8 132 31.3
2011-08-16 11:42:28 51°19.248 2°31.964 128.7 12.9 133 31.7
2011-08-16 11:43:28 51°19.109 2°32.227 125 12.9 130 31.4
2011-08-16 11:44:28 51°18.974 2°32.493 127.1 12.8 131 31.7
2011-08-16 11:45:28 51°18.833 2°32.75 130 12.9 132 29.5
2011-08-16 11:46:28 51°18.7 2°33.018 125.5 12.9 127 27.5
2011-08-16 11:47:28 51°18.565 2°33.285 127.2 12.9 127 23.2
2011-08-16 11:48:28 51°18.433 2°33.558 130.4 13.1 129 18.6
2011-08-16 11:49:28 51°18.298 2°33.832 128.4 13 129 24.4
2011-08-16 11:50:28 51°18.159 2°34.095 130.3 13 132 28.4
2011-08-16 11:51:28 51°18.011 2°34.346 134.6 13 136 28.7
2011-08-16 11:52:28 51°17.856 2°34.581 135.2 12.9 134 25.6
2011-08-16 11:53:28 51°17.706 2°34.826 137.5 12.9 137 15.6
2011-08-16 11:54:28 51°17.544 2°35.058 135.5 13.2 135 14.8
2011-08-16 11:55:28 51°17.391 2°35.311 135.5 13.3 136 13.9
2011-08-16 11:56:28 51°17.227 2°35.552 141.6 13.4 142 14.8
2011-08-16 11:57:28 51°17.056 2°35.773 141.5 13.1 141 21
2011-08-16 11:58:28 51°16.886 2°35.992 138.7 13.1 137 27.8
2011-08-16 11:59:28 51°16.726 2°36.224 138.2 13 138 28.2
2011-08-16 12:00:28 51°16.574 2°36.448 129.4 10.8 126 28.8
2011-08-16 12:01:28 51°16.555 2°36.618 74.9 4.5 76 28.5
2011-08-16 12:02:28 51°16.577 2°36.719 66.6 3.9 71 28.4
2011-08-16 12:03:28 51°16.588 2°36.805 77.1 1.9 83 28.2
2011-08-16 12:04:28 51°16.586 2°36.83 75.6 0.9 101 28.3
2011-08-16 12:05:28 51°16.585 2°36.856 79.4 1.1 94 28.3
2011-08-16 12:06:28 51°16.584 2°36.887 83.4 1.2 89 28.5
2011-08-16 12:07:28 51°16.584 2°36.921 85.7 1.3 88 28.7
2011-08-16 12:08:28 51°16.585 2°36.957 88.2 1.4 89 28.7
2011-08-16 12:09:28 51°16.586 2°36.995 89.4 1.4 86 28.6
2011-08-16 12:10:28 51°16.587 2°37.034 92.8 1.5 86 28.7
2011-08-16 12:11:28 51°16.589 2°37.072 96.8 1.5 87 28.5
2011-08-16 12:12:28 51°16.59 2°37.111 101.6 1.5 88 28.5
2011-08-16 12:13:28 51°16.587 2°37.159 119.1 2.7 110 28.4
2011-08-16 12:14:28 51°16.517 2°37.303 130.1 11.3 126 28.4
2011-08-16 12:15:28 51°16.406 2°37.589 122.2 13.1 120 22.2
2011-08-16 12:16:28 51°16.29 2°37.885 124.7 13.3 124 10.8
2011-08-16 12:17:28 51°16.16 2°38.18 125.7 13.8 122 11.3
2011-08-16 12:18:28 51°16.049 2°38.501 123.4 13.8 122 13.4
2011-08-16 12:19:28 51°15.924 2°38.806 127.2 13.6 126 16.8
2011-08-16 12:20:28 51°15.796 2°39.101 127.4 13.5 124 20.6
2011-08-16 12:21:28 51°15.678 2°39.402 125.2 13.3 123 21.7
2011-08-16 12:22:28 51°15.54 2°39.673 131.7 13.3 129 21.3
2011-08-16 12:23:28 51°15.403 2°39.945 127.8 13.2 126 19.6
2011-08-16 12:24:28 51°15.275 2°40.233 126.6 13.4 125 16.5
2011-08-16 12:25:28 51°15.141 2°40.514 129.5 13.4 126 14.6
2011-08-16 12:26:28 51°15.009 2°40.803 129.1 13.4 129 14.6
2011-08-16 12:27:28 51°14.868 2°41.079 130.2 13.3 129 15.5
2011-08-16 12:28:28 51°14.743 2°41.374 129.1 13.5 125 16.1
2011-08-16 12:29:28 51°14.611 2°41.662 130.3 13.4 126 16.5
2011-08-16 12:30:28 51°14.482 2°41.953 130.4 13.3 129 17.8
2011-08-16 12:31:28 51°14.303 2°42.113 173.7 12.1 171 20.2
2011-08-16 12:32:28 51°14.111 2°42.069 198.2 11.8 190 19.6
2011-08-16 12:33:28 51°13.917 2°42.027 192 11.8 185 19
2011-08-16 12:34:28 51°13.721 2°42 190.6 11.9 185 17.8
2011-08-16 12:35:28 51°13.523 2°41.981 186.5 11.9 180 17
2011-08-16 12:36:28 51°13.326 2°41.964 190.9 11.8 187 15.9
2011-08-16 12:37:28 51°13.128 2°41.961 183.7 12 179 14.8
2011-08-16 12:38:28 51°12.93 2°41.95 188.4 11.9 185 13.8
2011-08-16 12:39:28 51°12.732 2°41.939 183.2 12 177 13.2
2011-08-16 12:40:28 51°12.535 2°41.936 188.8 11.8 185 12
2011-08-16 12:41:28 51°12.338 2°41.939 183.7 11.8 178 10.7
2011-08-16 12:42:28 51°12.144 2°41.925 190.2 11.8 185 10.8
2011-08-16 12:43:28 51°11.954 2°41.863 203.9 11.5 201 17.5
2011-08-16 12:44:28 51°11.777 2°41.76 203.8 11.3 200 17.2
2011-08-16 12:45:28 51°11.59 2°41.711 184.7 11.6 176 14.9
2011-08-16 12:46:28 51°11.395 2°41.76 179.7 11.8 174 14.6
2011-08-16 12:47:28 51°11.199 2°41.785 181.7 11.9 174 15
2011-08-16 12:48:28 51°11.061 2°41.865 150.7 6.3 130 15.5
2011-08-16 12:49:28 51°11.045 2°42.007 82.8 5.3 79 15.6
2011-08-16 12:50:28 51°11.08 2°42.114 32.4 3.1 57 15.5
2011-08-16 12:51:29 51°11.085 2°42.166 28.9 1.8 86 -999
2011-08-16 12:52:29 51°11.088 2°42.213 41.9 1.8 81 15.5
2011-08-16 12:53:28 51°11.094 2°42.261 49.5 1.9 79 15.5
2011-08-16 12:54:28 51°11.1 2°42.311 56 2 78 15.7
2011-08-16 12:55:28 51°11.108 2°42.364 57.1 2.1 77 15.8
2011-08-16 12:56:28 51°11.121 2°42.431 65 4.3 69 15.6
2011-08-16 12:57:28 51°11.216 2°42.58 33.1 11.9 38 15.3
2011-08-16 12:58:28 51°11.398 2°42.791 30.6 14 33 14.7
2011-08-16 12:59:28 51°11.591 2°43.002 35.2 14.2 39 13.8
2011-08-16 13:00:28 51°11.776 2°43.237 35.3 14.2 38 12.5
2011-08-16 13:01:28 51°11.962 2°43.464 31.8 14 34 10.9
2011-08-16 13:02:28 51°12.161 2°43.661 28.8 14.2 32 12.1
2011-08-16 13:03:28 51°12.351 2°43.892 40.2 14.4 42 14.5
2011-08-16 13:04:28 51°12.535 2°44.134 37.4 14.4 39 14.2
2011-08-16 13:05:28 51°12.73 2°44.353 32 14.3 35 15.3
2011-08-16 13:06:28 51°12.918 2°44.593 36.6 14.5 39 15.5
2011-08-16 13:07:28 51°13.114 2°44.813 32 14.4 35 15.3
2011-08-16 13:08:28 51°13.309 2°45.028 33.4 14.1 34 14.6
2011-08-16 13:09:28 51°13.495 2°45.254 39.2 14 41 12.2
2011-08-16 13:10:28 51°13.675 2°45.489 35.7 14 37 11.7
2011-08-16 13:11:28 51°13.869 2°45.692 32.3 14.1 34 12.7
2011-08-16 13:12:28 51°14.055 2°45.924 37.2 14.2 38 14.2
2011-08-16 13:13:28 51°14.244 2°46.153 34.7 14.3 37 15.2
2011-08-16 13:14:28 51°14.432 2°46.384 35.7 14.3 37 16
2011-08-16 13:15:28 51°14.619 2°46.616 38.1 14.2 40 16
2011-08-16 13:16:28 51°14.796 2°46.867 38.8 14.2 41 14.7
2011-08-16 13:17:28 51°14.986 2°47.081 33.9 14 36 12.7
2011-08-16 13:18:28 51°15.17 2°47.313 34.9 14.1 36 12.8
2011-08-16 13:19:28 51°15.359 2°47.536 37.3 14.3 39 13.7
2011-08-16 13:20:28 51°15.538 2°47.786 39.9 14.3 41 14.7
2011-08-16 13:21:28 51°15.724 2°48.021 35.6 14.4 37 16
2011-08-16 13:22:28 51°15.912 2°48.264 38.4 14.5 39 17.3
2011-08-16 13:23:28 51°16.106 2°48.491 34.1 14.5 36 18.2
2011-08-16 13:24:28 51°16.3 2°48.726 38.1 14.7 40 18.3
2011-08-16 13:25:28 51°16.491 2°48.97 36.7 14.7 38 16.9
2011-08-16 13:26:28 51°16.69 2°49.197 34.5 14.7 35 11.9
2011-08-16 13:27:28 51°16.883 2°49.433 38.4 14.5 36 12.2
2011-08-16 13:28:27 51°14.598 2°49.572 125.6 -999 -999 -999
2011-08-16 13:28:28 51°17.08 2°49.655 33.8 14.4 35 14.2
2011-08-16 13:29:28 51°17.277 2°49.869 36.3 14.4 34 14.4
2011-08-16 13:30:28 51°17.472 2°50.09 38.6 14.2 36 15
2011-08-16 13:31:28 51°17.66 2°50.325 39.9 14.3 39 15.5
2011-08-16 13:32:28 51°17.857 2°50.536 30.5 14.2 29 15.7
2011-08-16 13:33:28 51°18.061 2°50.73 31.3 14.2 31 15.9
2011-08-16 13:34:28 51°18.248 2°50.923 32.9 11.9 31 16.2
2011-08-16 13:35:28 51°18.381 2°51.01 9.5 6.5 17 16.4
2011-08-16 13:36:28 51°18.461 2°51.037 344.3 3.8 6 16.8
2011-08-16 13:37:28 51°18.501 2°51.061 334.9 2 63 16.9
2011-08-16 13:38:32 51°18.517 2°51.108 351.9 1.8 59 -999
2011-08-16 13:39:30 51°18.533 2°51.148 359.8 1.9 56 16.9
2011-08-16 13:40:29 51°18.551 2°51.189 7.6 2 53 17.1
2011-08-16 13:41:28 51°18.571 2°51.233 16.8 2.7 46 17
2011-08-16 13:42:28 51°18.614 2°51.359 95.2 7.2 90 16.9
2011-08-16 13:43:28 51°18.528 2°51.548 140.9 11.6 134 16.3
2011-08-16 13:44:28 51°18.366 2°51.745 156.1 12.3 147 15
2011-08-16 13:45:28 51°18.192 2°51.92 154.7 12.5 146 14.1
2011-08-16 13:46:28 51°18.021 2°52.106 153.5 12.4 145 14.3
2011-08-16 13:47:28 51°17.854 2°52.303 152 12.4 144 13.4
2011-08-16 13:48:28 51°17.689 2°52.5 151.5 12.5 143 13.4
2011-08-16 13:49:28 51°17.519 2°52.686 154.6 12.5 145 13.2
2011-08-16 13:50:28 51°17.353 2°52.884 150.9 12.4 142 13
2011-08-16 13:51:28 51°17.182 2°53.063 155.6 12.4 147 12.3
2011-08-16 13:52:28 51°17.012 2°53.249 152.7 12.4 145 11.4
2011-08-16 13:53:28 51°16.845 2°53.44 152.5 12.7 143 14
2011-08-16 13:54:28 51°16.672 2°53.624 160 12.4 151 14.6
2011-08-16 13:55:28 51°16.494 2°53.792 156.5 12.6 145 14.6
2011-08-16 13:56:28 51°16.321 2°53.981 156 12.5 148 14.3
2011-08-16 13:57:28 51°16.168 2°54.132 151 7.6 133 14
2011-08-16 13:58:28 51°16.151 2°54.282 83.1 5.4 71 14.1
2011-08-16 13:59:28 51°16.204 2°54.378 19.3 4.4 30 14.2
2011-08-16 14:00:28 51°16.251 2°54.415 351.5 1.9 53 14.2
2011-08-16 14:01:29 51°16.266 2°54.459 8.1 1.9 59 -999
2011-08-16 14:02:31 51°16.282 2°54.505 17.8 1.9 60 14.3
2011-08-16 14:03:29 51°16.298 2°54.548 24.4 1.9 60 14.2
2011-08-16 14:04:28 51°16.313 2°54.594 30.6 1.9 62 14.3
2011-08-16 14:05:28 51°16.329 2°54.642 37.9 2.8 57 14.1
2011-08-16 14:06:28 51°16.338 2°54.769 126.4 6 120 13.9
2011-08-16 14:07:28 51°16.242 2°54.815 185 7.4 173 14.1
2011-08-16 14:08:28 51°16.109 2°54.834 183.6 8.3 175 13.8
2011-08-16 14:09:28 51°15.969 2°54.852 183.3 8.5 176 13.5
2011-08-16 14:10:28 51°15.796 2°54.866 183 11.5 178 13
2011-08-16 14:11:28 51°15.603 2°54.873 185.9 11.6 181 12.5
2011-08-16 14:12:28 51°15.411 2°54.88 183.6 11.5 178 12
2011-08-16 14:13:28 51°15.218 2°54.893 181.5 11.6 176 11.4
2011-08-16 14:14:28 51°15.029 2°54.911 184.9 11.3 177 12.1
2011-08-16 14:15:28 51°14.84 2°54.939 180.5 11.5 172 12.6
2011-08-16 14:16:28 51°14.651 2°55.009 172.1 11.8 165 13.7
2011-08-16 14:17:28 51°14.464 2°55.113 156.5 11.5 157 14
2011-08-16 14:18:28 51°14.323 2°55.249 147.4 8.7 149 -999
2011-08-16 14:19:28 51°14.215 2°55.346 151.1 6.9 151 14.2
2011-08-16 14:20:28 51°14.119 2°55.42 154.3 5.6 155 14.1
2011-08-16 14:21:28 51°14.035 2°55.481 155.1 5.7 155 14.2
2011-08-16 14:22:28 51°13.948 2°55.543 155.4 5.9 156 14.4
2011-08-16 14:23:28 51°13.857 2°55.607 154.5 5.9 155 14.3
2011-08-16 14:24:28 51°13.777 2°55.683 143.3 5.2 143 14.5
2011-08-16 14:25:32 51°13.717 2°55.781 129.3 4.7 129 14.5
2011-08-16 14:26:32 51°13.674 2°55.871 121.3 3.9 124 -999
2011-08-16 14:27:31 51°13.649 2°55.952 105.3 3 108 -999
2011-08-16 14:28:32 51°13.642 2°56 104.9 0.4 97 -999
2011-08-16 14:29:32 51°13.639 2°56.01 115.8 0.4 129 -999